createdAt,value
2023-01-31T00:01:44.052Z,58.78
2023-01-31T00:04:15.959Z,63.70
2023-01-31T00:06:51.528Z,65.93
2023-01-31T00:09:23.595Z,61.70
2023-01-31T00:11:55.602Z,61.90
2023-01-31T00:14:27.464Z,63.40
2023-01-31T00:17:00.007Z,59.72
2023-01-31T00:19:34.917Z,55.92
2023-01-31T00:22:07.027Z,59.97
2023-01-31T00:24:39.717Z,59.13
2023-01-31T00:27:11.612Z,65.50
2023-01-31T00:29:43.570Z,61.42
2023-01-31T00:32:15.509Z,56.15
2023-01-31T00:34:47.477Z,60.47
2023-01-31T00:37:19.567Z,55.65
2023-01-31T00:39:51.403Z,61.50
2023-01-31T00:42:24.819Z,61.95
2023-01-31T00:44:56.658Z,56.72
2023-01-31T00:47:29.634Z,57.80
2023-01-31T00:50:01.609Z,57.63
2023-01-31T00:52:33.658Z,59.20
2023-01-31T00:55:05.796Z,56.55
2023-01-31T00:57:37.651Z,56.08
2023-01-31T01:00:10.381Z,60.08
2023-01-31T01:02:42.935Z,60.95
2023-01-31T01:05:14.935Z,60.28
2023-01-31T01:07:46.848Z,56.92
2023-01-31T01:10:18.881Z,54.72
2023-01-31T01:12:51.027Z,58.67
2023-01-31T01:15:23.078Z,55.90
2023-01-31T01:17:55.910Z,54.72
2023-01-31T01:20:27.887Z,58.75
2023-01-31T01:23:01.867Z,55.28
2023-01-31T01:25:44.835Z,58.38
2023-01-31T01:28:21.000Z,56.20
2023-01-31T01:30:53.181Z,54.67
2023-01-31T01:33:26.137Z,57.90
2023-01-31T01:36:09.415Z,54.75
2023-01-31T01:38:41.893Z,51.53
2023-01-31T01:41:14.568Z,52.63
2023-01-31T01:43:48.637Z,52.95
2023-01-31T01:46:43.657Z,53.83
2023-01-31T01:49:33.248Z,53.35
2023-01-31T01:52:08.719Z,52.08
2023-01-31T01:55:07.030Z,51.58
2023-01-31T01:57:42.699Z,48.85
2023-01-31T02:00:25.543Z,46.65
2023-01-31T02:03:00.700Z,47.75
2023-01-31T02:05:38.419Z,52.53
2023-01-31T02:08:10.812Z,48.85
2023-01-31T02:10:49.471Z,50.05
2023-01-31T02:13:21.933Z,46.40
2023-01-31T02:15:56.070Z,45.65
2023-01-31T02:18:28.897Z,50.78
2023-01-31T02:21:42.518Z,46.65
2023-01-31T02:24:26.076Z,42.03
2023-01-31T02:27:24.663Z,41.30
2023-01-31T02:30:02.382Z,42.75
2023-01-31T02:32:52.569Z,41.75
2023-01-31T02:35:38.613Z,41.38
2023-01-31T02:38:25.459Z,40.78
2023-01-31T02:41:32.383Z,39.00
2023-01-31T02:44:47.266Z,40.72
2023-01-31T02:47:34.139Z,36.58
2023-01-31T02:50:26.003Z,38.08
2023-01-31T02:53:12.848Z,34.50
2023-01-31T02:56:08.141Z,35.20
2023-01-31T02:58:45.279Z,34.90
2023-01-31T03:01:23.347Z,38.95
2023-01-31T03:04:03.902Z,34.08
2023-01-31T03:06:36.645Z,35.05
2023-01-31T03:09:26.211Z,33.72
2023-01-31T03:12:35.664Z,31.98
2023-01-31T03:15:19.970Z,33.10
2023-01-31T03:18:01.658Z,31.38
2023-01-31T03:20:53.548Z,29.52
2023-01-31T03:23:29.876Z,27.67
2023-01-31T03:26:04.451Z,30.38
2023-01-31T03:28:42.315Z,28.60
2023-01-31T03:31:27.577Z,26.58
2023-01-31T03:34:04.215Z,28.05
2023-01-31T03:36:43.211Z,29.15
2023-01-31T03:40:05.662Z,27.48
2023-01-31T03:42:41.602Z,24.45
2023-01-31T03:46:12.371Z,23.40
2023-01-31T03:48:48.313Z,23.80
2023-01-31T03:51:26.076Z,23.00
2023-01-31T03:54:09.782Z,28.33
2023-01-31T03:56:47.669Z,22.58
2023-01-31T03:59:26.204Z,23.50
2023-01-31T04:02:01.431Z,20.50
2023-01-31T04:04:47.470Z,20.52
2023-01-31T04:07:19.791Z,21.67
2023-01-31T04:09:52.293Z,23.95
2023-01-31T04:12:24.626Z,22.25
2023-01-31T04:14:56.477Z,21.15
2023-01-31T04:17:28.257Z,19.92
2023-01-31T04:20:01.142Z,19.70
2023-01-31T04:22:33.512Z,16.70
2023-01-31T04:25:08.199Z,17.80
2023-01-31T04:27:40.191Z,17.45
2023-01-31T04:30:12.966Z,20.85
2023-01-31T04:32:44.824Z,15.48
2023-01-31T04:35:16.836Z,13.88
2023-01-31T04:37:48.840Z,19.70
2023-01-31T04:40:21.070Z,14.23
2023-01-31T04:42:52.929Z,14.30
2023-01-31T04:45:24.789Z,15.75
2023-01-31T04:47:56.748Z,13.40
2023-01-31T04:50:28.778Z,13.10
2023-01-31T04:53:00.695Z,13.90
2023-01-31T04:55:32.921Z,15.80
2023-01-31T04:58:06.728Z,15.93
2023-01-31T05:00:38.924Z,17.50
2023-01-31T05:03:10.998Z,13.48
2023-01-31T05:05:42.858Z,14.52
2023-01-31T05:08:14.748Z,12.75
2023-01-31T05:10:46.643Z,14.48
2023-01-31T05:13:18.499Z,10.85
2023-01-31T05:16:02.049Z,12.20
2023-01-31T05:18:35.443Z,11.52
2023-01-31T05:21:08.254Z,9.73
2023-01-31T05:23:40.161Z,12.63
2023-01-31T05:26:12.336Z,9.95
2023-01-31T05:28:44.177Z,13.02
2023-01-31T05:31:16.621Z,14.05
2023-01-31T05:33:49.231Z,11.85
2023-01-31T05:36:21.105Z,11.68
2023-01-31T05:38:52.987Z,11.18
2023-01-31T05:41:25.381Z,8.77
2023-01-31T05:43:57.257Z,11.50
2023-01-31T05:46:29.127Z,10.70
2023-01-31T05:49:01.092Z,9.98
2023-01-31T05:51:33.373Z,9.23
2023-01-31T05:54:05.502Z,8.27
2023-01-31T05:56:39.199Z,10.77
2023-01-31T05:59:11.221Z,8.45
2023-01-31T06:01:43.281Z,9.50
2023-01-31T06:04:15.287Z,10.18
2023-01-31T06:06:47.306Z,8.90
2023-01-31T06:09:21.295Z,6.95
2023-01-31T06:11:53.403Z,8.80
2023-01-31T06:14:25.371Z,7.97
2023-01-31T06:16:57.210Z,8.00
2023-01-31T06:19:29.128Z,8.35
2023-01-31T06:22:01.170Z,8.52
2023-01-31T06:24:33.189Z,7.65
2023-01-31T06:27:05.740Z,11.10
2023-01-31T06:29:37.773Z,6.65
2023-01-31T06:32:09.644Z,7.35
2023-01-31T06:34:41.523Z,7.88
2023-01-31T06:37:13.481Z,11.18
2023-01-31T06:39:45.336Z,10.25
2023-01-31T06:42:17.184Z,5.32
2023-01-31T06:44:49.017Z,8.10
2023-01-31T06:47:20.859Z,8.43
2023-01-31T06:49:54.494Z,7.80
2023-01-31T06:52:26.808Z,7.35
2023-01-31T06:54:58.933Z,9.30
2023-01-31T06:57:30.793Z,9.10
2023-01-31T07:00:03.583Z,9.45
2023-01-31T07:02:35.541Z,10.68
2023-01-31T07:05:08.009Z,14.70
2023-01-31T07:07:40.220Z,6.85
2023-01-31T07:10:12.936Z,6.88
2023-01-31T07:12:44.867Z,8.45
2023-01-31T07:15:16.804Z,6.53
2023-01-31T07:17:48.661Z,4.63
2023-01-31T07:20:20.639Z,5.35
2023-01-31T07:22:59.361Z,11.50
2023-01-31T07:25:34.084Z,3.80
2023-01-31T07:28:06.023Z,4.18
2023-01-31T07:30:37.957Z,5.47
2023-01-31T07:33:11.482Z,12.68
2023-01-31T07:35:43.668Z,4.85
2023-01-31T07:38:15.585Z,27.02
2023-01-31T07:40:47.478Z,5.63
2023-01-31T07:43:20.979Z,12.98
2023-01-31T07:45:53.103Z,19.38
2023-01-31T07:48:24.955Z,17.92
2023-01-31T07:51:01.494Z,6.68
2023-01-31T07:53:36.694Z,3.78
2023-01-31T07:56:14.682Z,7.85
2023-01-31T07:58:47.709Z,7.25
2023-01-31T08:01:40.891Z,8.43
2023-01-31T08:04:21.648Z,20.83
2023-01-31T08:06:55.793Z,10.30
2023-01-31T08:09:27.689Z,13.00
2023-01-31T08:11:59.698Z,3.58
2023-01-31T08:14:32.961Z,6.88
2023-01-31T08:17:06.230Z,7.22
2023-01-31T08:19:38.541Z,5.05
2023-01-31T08:22:10.644Z,8.27
2023-01-31T08:24:42.607Z,7.30
2023-01-31T08:27:14.517Z,6.32
2023-01-31T08:29:46.410Z,5.90
2023-01-31T08:32:18.337Z,7.65
2023-01-31T08:34:50.230Z,9.73
2023-01-31T08:37:22.064Z,6.90
2023-01-31T08:39:53.874Z,5.47
2023-01-31T08:42:25.724Z,6.55
2023-01-31T08:44:57.631Z,4.38
2023-01-31T08:47:30.175Z,8.82
2023-01-31T08:50:02.426Z,8.13
2023-01-31T08:52:35.557Z,6.78
2023-01-31T08:55:09.454Z,6.45
2023-01-31T08:57:57.677Z,8.23
2023-01-31T09:00:31.336Z,11.52
2023-01-31T09:03:03.294Z,11.63
2023-01-31T09:05:35.184Z,11.88
2023-01-31T09:08:07.039Z,19.58
2023-01-31T09:10:39.656Z,17.25
2023-01-31T09:13:11.607Z,11.55
2023-01-31T09:15:43.456Z,14.27
2023-01-31T09:18:15.404Z,7.53
2023-01-31T09:20:47.265Z,8.73
2023-01-31T09:23:20.156Z,20.08
2023-01-31T09:25:56.016Z,21.58
2023-01-31T09:28:28.829Z,23.45
2023-01-31T09:31:11.124Z,22.80
2023-01-31T09:33:43.530Z,21.13
2023-01-31T09:36:20.768Z,24.75
2023-01-31T09:38:56.979Z,33.05
2023-01-31T09:41:44.204Z,25.13
2023-01-31T09:44:20.437Z,32.17
2023-01-31T09:46:59.760Z,24.25
2023-01-31T09:49:50.644Z,25.95
2023-01-31T09:52:23.255Z,23.87
2023-01-31T09:54:55.793Z,29.70
2023-01-31T09:57:27.587Z,31.15
2023-01-31T10:00:31.533Z,30.40
2023-01-31T10:03:41.114Z,28.45
2023-01-31T10:06:22.910Z,26.63
2023-01-31T10:09:23.975Z,26.15
2023-01-31T10:12:07.081Z,26.35
2023-01-31T10:14:50.496Z,31.08
2023-01-31T10:17:43.397Z,27.13
2023-01-31T10:20:29.223Z,25.42
2023-01-31T10:23:14.031Z,23.40
2023-01-31T10:26:00.479Z,30.30
2023-01-31T10:28:38.239Z,28.17
2023-01-31T10:31:42.776Z,28.73
2023-01-31T10:34:18.420Z,25.45
2023-01-31T10:37:11.821Z,27.75
2023-01-31T10:39:54.280Z,26.63
2023-01-31T10:43:18.711Z,30.63
2023-01-31T10:45:50.655Z,37.80
2023-01-31T10:48:26.318Z,33.13
2023-01-31T10:51:01.129Z,39.95
2023-01-31T10:54:03.835Z,46.47
2023-01-31T10:56:43.524Z,37.67
2023-01-31T10:59:29.989Z,41.95
2023-01-31T11:02:03.069Z,38.05
2023-01-31T11:04:42.836Z,38.97
2023-01-31T11:07:14.950Z,39.10
2023-01-31T11:09:53.984Z,45.88
2023-01-31T11:13:01.861Z,43.72
2023-01-31T11:15:40.670Z,37.78
2023-01-31T11:18:22.189Z,37.78
2023-01-31T11:23:29.901Z,36.13
2023-01-31T11:26:02.271Z,35.47
2023-01-31T11:28:39.537Z,32.60
2023-01-31T11:31:29.712Z,34.72
2023-01-31T11:34:17.629Z,33.17
2023-01-31T11:36:49.872Z,28.67
2023-01-31T11:39:38.322Z,26.45
2023-01-31T11:42:16.514Z,30.83
2023-01-31T11:45:01.369Z,29.20
2023-01-31T11:47:39.128Z,30.10
2023-01-31T11:50:20.443Z,29.75
2023-01-31T11:55:39.166Z,24.95
2023-01-31T11:58:32.756Z,26.00
2023-01-31T12:01:12.858Z,29.20
2023-01-31T12:04:03.148Z,27.05
2023-01-31T12:06:37.436Z,21.27
2023-01-31T12:09:22.668Z,20.33
2023-01-31T12:12:07.733Z,20.75
2023-01-31T12:14:42.286Z,23.63
2023-01-31T12:17:17.306Z,18.52
2023-01-31T12:20:01.197Z,20.20
2023-01-31T12:23:00.039Z,16.73
2023-01-31T12:26:02.851Z,20.00
2023-01-31T12:28:49.330Z,14.35
2023-01-31T12:31:56.425Z,15.02
2023-01-31T12:35:01.342Z,12.35
2023-01-31T12:37:49.182Z,12.63
2023-01-31T12:40:29.563Z,11.10
2023-01-31T12:46:07.161Z,16.75
2023-01-31T12:48:47.786Z,20.90
2023-01-31T12:51:34.038Z,21.67
2023-01-31T12:54:42.874Z,20.92
2023-01-31T12:57:27.122Z,22.40
2023-01-31T13:00:26.007Z,25.45
2023-01-31T13:03:22.700Z,23.75
2023-01-31T13:06:47.252Z,21.92
2023-01-31T13:09:28.281Z,23.15
2023-01-31T13:12:09.150Z,19.40
2023-01-31T13:14:45.110Z,19.40
2023-01-31T13:17:25.166Z,20.60
2023-01-31T13:20:02.236Z,21.38
2023-01-31T13:22:42.346Z,17.95
2023-01-31T13:25:41.459Z,17.35
2023-01-31T13:28:15.754Z,18.63
2023-01-31T13:31:00.919Z,19.90
2023-01-31T13:33:37.115Z,16.48
2023-01-31T13:36:19.914Z,17.25
2023-01-31T13:38:52.663Z,15.68
2023-01-31T13:41:34.567Z,16.73
2023-01-31T13:44:09.525Z,16.10
2023-01-31T13:46:53.810Z,19.85
2023-01-31T13:49:39.001Z,19.60
2023-01-31T13:52:28.267Z,19.15
2023-01-31T13:55:05.909Z,17.38
2023-01-31T13:57:53.103Z,19.70
2023-01-31T14:00:37.977Z,19.70
2023-01-31T14:03:14.683Z,22.52
2023-01-31T14:06:01.172Z,23.90
2023-01-31T14:08:59.045Z,20.98
2023-01-31T14:11:33.310Z,19.75
2023-01-31T14:14:33.837Z,18.95
2023-01-31T14:17:36.442Z,23.52
2023-01-31T14:20:29.830Z,15.77
2023-01-31T14:23:32.005Z,18.02
2023-01-31T14:26:03.915Z,19.65
2023-01-31T14:28:43.815Z,18.63
2023-01-31T14:31:26.584Z,17.58
2023-01-31T14:33:59.679Z,16.90
2023-01-31T14:36:51.965Z,17.17
2023-01-31T14:39:46.239Z,17.00
2023-01-31T14:42:30.872Z,22.05
2023-01-31T14:45:28.726Z,18.95
2023-01-31T14:48:39.776Z,128.02
2023-01-31T14:51:20.575Z,20.85
2023-01-31T14:54:20.217Z,15.93
2023-01-31T14:57:13.305Z,15.10
2023-01-31T14:59:58.436Z,15.23
2023-01-31T15:02:33.897Z,18.52
2023-01-31T15:05:35.586Z,18.38
2023-01-31T15:10:55.715Z,19.55
2023-01-31T15:13:51.125Z,20.98
2023-01-31T15:16:26.987Z,17.73
2023-01-31T15:19:20.800Z,19.42
2023-01-31T15:22:02.375Z,22.52
2023-01-31T15:24:38.793Z,21.77
2023-01-31T15:27:51.429Z,26.08
2023-01-31T15:30:24.852Z,30.92
2023-01-31T15:33:18.381Z,26.67
2023-01-31T15:36:01.695Z,25.90
2023-01-31T15:38:37.916Z,26.33
2023-01-31T15:41:24.102Z,26.33
2023-01-31T15:44:13.233Z,26.13
2023-01-31T15:46:53.746Z,28.52
2023-01-31T15:49:39.525Z,27.17
2023-01-31T15:52:16.059Z,37.38
2023-01-31T15:54:59.752Z,29.05
2023-01-31T15:57:39.749Z,27.08
2023-01-31T16:00:30.264Z,28.60
2023-01-31T16:03:05.542Z,25.90
2023-01-31T16:05:39.309Z,30.17
2023-01-31T16:08:37.748Z,27.67
2023-01-31T16:11:10.673Z,28.75
2023-01-31T16:13:43.458Z,27.77
2023-01-31T16:16:16.847Z,31.50
2023-01-31T16:18:55.192Z,29.58
2023-01-31T16:21:29.835Z,31.92
2023-01-31T16:24:13.978Z,32.63
2023-01-31T16:27:14.719Z,31.08
2023-01-31T16:29:50.744Z,29.75
2023-01-31T16:32:37.000Z,32.78
2023-01-31T16:35:22.617Z,31.52
2023-01-31T16:38:20.796Z,33.22
2023-01-31T16:40:59.236Z,31.70
2023-01-31T16:43:33.139Z,38.33
2023-01-31T16:46:31.976Z,36.30
2023-01-31T16:49:08.180Z,29.33
2023-01-31T16:51:43.850Z,34.00
2023-01-31T16:54:22.084Z,38.20
2023-01-31T16:57:02.852Z,38.83
2023-01-31T16:59:34.749Z,42.03
2023-01-31T17:02:26.629Z,35.15
2023-01-31T17:05:07.967Z,32.67
2023-01-31T17:07:44.569Z,37.05
2023-01-31T17:10:43.732Z,40.60
2023-01-31T17:13:24.414Z,43.63
2023-01-31T17:15:56.378Z,81.10
2023-01-31T17:18:28.901Z,53.15
2023-01-31T17:21:00.814Z,58.83
2023-01-31T17:23:32.700Z,39.60
2023-01-31T17:26:04.764Z,48.78
2023-01-31T17:28:37.454Z,49.15
2023-01-31T17:31:21.822Z,56.22
2023-01-31T17:33:53.874Z,54.97
2023-01-31T17:36:25.896Z,44.17
2023-01-31T17:38:58.172Z,53.08
2023-01-31T17:41:30.836Z,50.20
2023-01-31T17:44:05.215Z,46.95
2023-01-31T17:46:37.266Z,48.95
2023-01-31T17:49:09.234Z,101.00
2023-01-31T17:51:41.323Z,49.20
2023-01-31T17:54:13.374Z,46.33
2023-01-31T17:56:45.542Z,47.95
2023-01-31T17:59:26.549Z,46.25
2023-01-31T18:02:00.541Z,50.88
2023-01-31T18:04:32.613Z,43.83
2023-01-31T18:07:04.899Z,48.25
2023-01-31T18:09:37.293Z,47.45
2023-01-31T18:12:13.398Z,44.00
2023-01-31T18:14:46.131Z,43.38
2023-01-31T18:17:19.727Z,40.35
2023-01-31T18:19:52.103Z,41.70
2023-01-31T18:22:25.580Z,38.50
2023-01-31T18:24:57.991Z,44.05
2023-01-31T18:27:30.319Z,46.28
2023-01-31T18:30:02.474Z,48.58
2023-01-31T18:32:34.671Z,39.63
2023-01-31T18:35:07.239Z,42.78
2023-01-31T18:37:39.312Z,44.88
2023-01-31T18:40:11.947Z,43.42
2023-01-31T18:42:44.043Z,39.45
2023-01-31T18:45:16.138Z,38.97
2023-01-31T18:47:48.130Z,35.00
2023-01-31T18:50:20.033Z,37.40
2023-01-31T18:52:51.967Z,38.00
2023-01-31T18:55:24.052Z,40.78
2023-01-31T18:57:56.124Z,43.70
2023-01-31T19:00:28.913Z,36.28
2023-01-31T19:03:00.861Z,42.95
2023-01-31T19:05:32.792Z,37.30
2023-01-31T19:08:04.943Z,34.97
2023-01-31T19:10:36.893Z,37.22
2023-01-31T19:13:08.936Z,32.08
2023-01-31T19:15:40.839Z,39.33
2023-01-31T19:18:12.778Z,41.15
2023-01-31T19:20:44.717Z,35.30
2023-01-31T19:23:16.642Z,35.80
2023-01-31T19:25:49.162Z,35.33
2023-01-31T19:28:23.497Z,36.25
2023-01-31T19:30:55.479Z,29.00
2023-01-31T19:33:27.416Z,27.55
2023-01-31T19:35:59.344Z,29.48
2023-01-31T19:38:34.317Z,30.80
2023-01-31T19:41:09.010Z,45.08
2023-01-31T19:43:41.609Z,25.60
2023-01-31T19:46:13.690Z,28.15
2023-01-31T19:48:45.936Z,28.27
2023-01-31T19:51:20.443Z,26.70
2023-01-31T19:53:55.677Z,24.33
2023-01-31T19:56:28.790Z,26.52
2023-01-31T19:59:01.305Z,25.70
2023-01-31T20:01:33.896Z,26.23
2023-01-31T20:04:06.413Z,30.80
2023-01-31T20:06:38.338Z,28.55
2023-01-31T20:09:16.215Z,31.85
2023-01-31T20:11:48.096Z,34.67
2023-01-31T20:14:20.451Z,32.40
2023-01-31T20:16:52.594Z,28.80
2023-01-31T20:19:26.131Z,30.17
2023-01-31T20:21:58.249Z,27.00
2023-01-31T20:24:30.969Z,33.58
2023-01-31T20:27:03.225Z,26.75
2023-01-31T20:29:35.211Z,27.20
2023-01-31T20:32:09.511Z,27.73
2023-01-31T20:34:43.675Z,27.65
2023-01-31T20:37:19.067Z,89.63
2023-01-31T20:39:51.051Z,33.13
2023-01-31T20:42:25.726Z,38.67
2023-01-31T20:45:00.869Z,43.00
2023-01-31T20:47:32.815Z,42.72
2023-01-31T20:50:04.925Z,33.25
2023-01-31T20:52:37.032Z,27.90
2023-01-31T20:55:09.490Z,26.58
2023-01-31T20:57:41.390Z,28.92
2023-01-31T21:00:13.708Z,27.23
2023-01-31T21:02:46.202Z,30.73
2023-01-31T21:05:18.682Z,29.92
2023-01-31T21:07:52.495Z,27.30
2023-01-31T21:10:24.753Z,33.17
2023-01-31T21:12:56.698Z,28.77
2023-01-31T21:15:28.945Z,27.50
2023-01-31T21:18:00.991Z,25.35
2023-01-31T21:20:33.787Z,28.42
2023-01-31T21:23:05.715Z,25.60
2023-01-31T21:25:39.065Z,27.00
2023-01-31T21:28:31.592Z,25.33
2023-01-31T21:31:10.496Z,30.67
2023-01-31T21:33:51.410Z,28.15
2023-01-31T21:36:25.362Z,25.80
2023-01-31T21:38:57.457Z,32.10
2023-01-31T21:41:47.852Z,28.20
2023-01-31T21:44:21.460Z,30.48
2023-01-31T21:46:53.342Z,25.13
2023-01-31T21:49:25.190Z,24.70
2023-01-31T21:52:00.408Z,24.80
2023-01-31T21:54:32.668Z,28.50
2023-01-31T21:57:04.737Z,23.17
2023-01-31T21:59:37.949Z,25.15
2023-01-31T22:02:11.231Z,23.40
2023-01-31T22:04:43.093Z,23.95
2023-01-31T22:07:15.257Z,24.85
2023-01-31T22:09:47.478Z,24.92
2023-01-31T22:12:19.303Z,23.50
2023-01-31T22:14:51.223Z,23.10
2023-01-31T22:17:23.060Z,21.27
2023-01-31T22:19:54.967Z,24.50
2023-01-31T22:22:27.279Z,17.70
2023-01-31T22:24:59.332Z,20.35
2023-01-31T22:27:31.179Z,23.67
2023-01-31T22:30:15.775Z,24.40
2023-01-31T22:32:48.471Z,25.02
2023-01-31T22:35:23.211Z,25.60
2023-01-31T22:37:55.100Z,20.50
2023-01-31T22:40:26.968Z,24.20
2023-01-31T22:42:58.843Z,27.52
2023-01-31T22:45:30.692Z,22.85
2023-01-31T22:48:02.542Z,23.55
2023-01-31T22:50:39.595Z,23.92
2023-01-31T22:53:13.516Z,24.38
2023-01-31T22:55:46.681Z,24.10
2023-01-31T22:58:20.034Z,26.50
2023-01-31T23:00:52.408Z,27.27
2023-01-31T23:03:25.441Z,22.98
2023-01-31T23:05:58.684Z,22.95
2023-01-31T23:08:30.834Z,22.98
2023-01-31T23:11:05.287Z,24.73
2023-01-31T23:13:37.678Z,21.85
2023-01-31T23:16:14.710Z,22.33
2023-01-31T23:18:47.309Z,20.17
2023-01-31T23:21:19.396Z,23.08
2023-01-31T23:23:51.340Z,20.25
2023-01-31T23:26:23.198Z,22.40
2023-01-31T23:28:56.371Z,21.90
2023-01-31T23:31:28.674Z,22.90
2023-01-31T23:34:00.874Z,19.25
2023-01-31T23:36:32.833Z,20.10
2023-01-31T23:39:05.055Z,21.83
2023-01-31T23:41:37.000Z,19.63
2023-01-31T23:44:09.076Z,22.65
2023-01-31T23:46:44.147Z,22.55
2023-01-31T23:49:16.386Z,22.48
2023-01-31T23:51:48.216Z,17.88
2023-01-31T23:54:20.553Z,23.65
2023-01-31T23:56:53.614Z,23.85
2023-01-31T23:59:35.351Z,20.85
